createdAt,value
2022-12-24T02:22:19.335Z,97499.42
2022-12-24T02:25:04.813Z,97501.75
2022-12-24T02:27:46.411Z,97494.57
2022-12-24T02:30:18.813Z,97489.10
2022-12-24T02:33:00.585Z,97483.84
2022-12-24T02:35:39.286Z,97480.44
2022-12-24T02:38:32.755Z,97482.48
2022-12-24T02:41:05.251Z,97477.96
2022-12-24T02:43:40.069Z,97475.41
2022-12-24T02:46:14.054Z,97470.14
2022-12-24T02:48:42.137Z,97474.89
2022-12-24T02:51:10.129Z,97483.18
2022-12-24T02:53:37.475Z,97484.50
2022-12-24T02:56:18.124Z,97488.36
2022-12-24T02:58:56.949Z,97488.11
2022-12-24T03:01:41.191Z,97486.73
2022-12-24T03:04:16.170Z,97487.38
2022-12-24T03:07:01.514Z,97488.89
2022-12-24T03:09:36.341Z,97486.94
2022-12-24T03:12:08.718Z,97487.73
2022-12-24T03:14:35.759Z,97488.25
2022-12-24T03:17:02.702Z,97482.78
2022-12-24T03:19:29.956Z,97484.92
2022-12-24T03:21:57.405Z,97483.44
2022-12-24T03:24:24.388Z,97486.73
2022-12-24T03:26:51.916Z,97482.52
2022-12-24T03:29:18.871Z,97477.12
2022-12-24T03:31:47.576Z,97463.30
2022-12-24T03:34:16.968Z,97468.07
2022-12-24T03:36:44.119Z,97469.13
2022-12-24T03:39:11.348Z,97471.36
2022-12-24T03:41:38.307Z,97472.31
2022-12-24T03:44:05.233Z,97473.62
2022-12-24T03:46:34.435Z,97477.90
2022-12-24T03:49:01.416Z,97473.14
2022-12-24T03:51:28.731Z,97470.95
2022-12-24T03:53:56.615Z,97472.75
2022-12-24T03:56:24.461Z,97469.21
2022-12-24T03:58:51.713Z,97461.70
2022-12-24T04:01:18.836Z,97464.20
2022-12-24T04:03:46.024Z,97464.37
2022-12-24T04:06:14.799Z,97459.20
2022-12-24T04:08:41.821Z,97457.52
2022-12-24T04:11:10.428Z,97458.45
2022-12-24T04:13:37.479Z,97450.98
2022-12-24T04:16:06.826Z,97449.87
2022-12-24T04:18:41.297Z,97443.17
2022-12-24T04:21:08.476Z,97444.80
2022-12-24T04:23:36.689Z,97442.95
2022-12-24T04:26:04.709Z,97442.83
2022-12-24T04:28:32.260Z,97447.81
2022-12-24T04:31:04.516Z,97447.09
2022-12-24T04:33:32.506Z,97450.41
2022-12-24T04:36:00.254Z,97454.12
2022-12-24T04:38:27.808Z,97456.83
2022-12-24T04:41:08.533Z,97456.69
2022-12-24T04:43:35.626Z,97459.73
2022-12-24T04:46:10.848Z,97455.70
2022-12-24T04:48:40.375Z,97455.19
2022-12-24T04:51:07.742Z,97458.60
2022-12-24T04:53:39.583Z,97454.77
2022-12-24T04:56:14.638Z,97450.58
2022-12-24T04:58:41.690Z,97458.08
2022-12-24T05:01:11.286Z,97458.21
2022-12-24T05:03:38.327Z,97461.11
2022-12-24T05:06:06.523Z,97459.15
2022-12-24T05:08:34.458Z,97457.14
2022-12-24T05:11:01.831Z,97459.77
2022-12-24T05:13:37.717Z,97454.26
2022-12-24T05:16:10.106Z,97452.19
2022-12-24T05:18:37.193Z,97452.80
2022-12-24T05:21:11.464Z,97449.16
2022-12-24T05:23:57.717Z,97439.91
2022-12-24T05:26:35.858Z,97434.45
2022-12-24T05:29:05.950Z,97438.16
2022-12-24T05:31:33.735Z,97435.02
2022-12-24T05:34:01.352Z,97434.02
2022-12-24T05:36:30.912Z,97434.00
2022-12-24T05:38:57.914Z,97426.98
2022-12-24T05:41:25.385Z,97423.30
2022-12-24T05:43:54.978Z,97421.83
2022-12-24T05:46:22.769Z,97420.20
2022-12-24T05:48:50.191Z,97417.35
2022-12-24T05:51:23.083Z,97420.93
2022-12-24T05:53:52.822Z,97417.78
2022-12-24T05:56:21.638Z,97420.17
2022-12-24T05:58:49.542Z,97422.16
2022-12-24T06:01:19.918Z,97421.38
2022-12-24T06:03:47.116Z,97415.95
2022-12-24T06:06:17.711Z,97414.95
2022-12-24T06:08:44.699Z,97413.27
2022-12-24T06:11:12.979Z,97416.89
2022-12-24T06:13:40.458Z,97419.74
2022-12-24T06:16:09.071Z,97413.39
2022-12-24T06:18:36.283Z,97409.20
2022-12-24T06:21:03.717Z,97410.89
2022-12-24T06:23:31.605Z,97411.40
2022-12-24T06:26:01.083Z,97410.98
2022-12-24T06:28:29.168Z,97407.74
2022-12-24T06:31:02.414Z,97407.59
2022-12-24T06:33:31.046Z,97410.15
2022-12-24T06:35:58.206Z,97411.48
2022-12-24T06:38:25.233Z,97410.73
2022-12-24T06:40:56.168Z,97414.39
2022-12-24T06:43:23.316Z,97416.30
2022-12-24T06:45:50.366Z,97421.88
2022-12-24T06:48:17.313Z,97421.00
2022-12-24T06:50:44.137Z,97421.94
2022-12-24T06:53:13.346Z,97417.14
2022-12-24T06:55:40.325Z,97405.96
2022-12-24T06:58:07.336Z,97398.65
2022-12-24T07:00:34.829Z,97396.51
2022-12-24T07:03:01.678Z,97394.40
2022-12-24T11:27:34.124Z,97424.14
2022-12-24T11:30:20.627Z,97435.73
2022-12-24T11:32:51.874Z,97429.77
2022-12-24T11:35:23.714Z,97430.20
2022-12-24T11:38:12.896Z,97432.70
2022-12-24T11:40:43.971Z,97432.63
2022-12-24T11:43:18.181Z,97429.16
2022-12-24T11:45:50.217Z,97433.74
2022-12-24T11:48:32.658Z,97442.94
2022-12-24T11:51:04.183Z,97447.29
2022-12-24T11:53:51.902Z,97452.27
2022-12-24T11:56:45.998Z,97447.27
2022-12-24T11:59:18.570Z,97447.27
2022-12-24T12:01:50.709Z,97449.30
2022-12-24T12:04:39.212Z,97452.66
2022-12-24T12:07:43.446Z,97458.92
2022-12-24T12:10:35.641Z,97457.21
2022-12-24T12:13:11.210Z,97466.72
2022-12-24T12:16:08.129Z,97465.64
2022-12-24T12:18:39.722Z,97467.75
2022-12-24T12:21:10.087Z,97473.70
2022-12-24T12:23:40.759Z,97479.20
2022-12-24T12:26:13.214Z,97489.88
2022-12-24T12:28:49.078Z,97492.77
2022-12-24T12:31:30.767Z,97491.93
2022-12-24T12:34:03.155Z,97490.31
2022-12-24T12:36:34.203Z,97497.52
2022-12-24T12:39:01.062Z,97493.67
2022-12-24T12:41:37.021Z,97491.04
2022-12-24T12:44:19.031Z,97483.51
2022-12-24T12:47:22.574Z,97486.48
2022-12-24T12:50:08.752Z,97487.92
2022-12-24T12:52:54.261Z,97492.42
2022-12-24T12:55:30.531Z,97499.16
2022-12-24T12:58:00.504Z,97509.76
2022-12-24T13:00:31.219Z,97517.65
2022-12-24T13:03:33.707Z,97527.20
2022-12-24T13:06:13.678Z,97533.52
2022-12-24T13:08:59.791Z,97542.86
2022-12-24T13:11:50.298Z,97550.10
2022-12-24T13:14:20.724Z,97551.14
2022-12-24T13:17:14.015Z,97552.71
2022-12-24T13:19:50.186Z,97552.84
2022-12-24T13:22:17.754Z,97556.39
2022-12-24T13:24:51.871Z,97563.05
2022-12-24T13:27:32.585Z,97562.80
2022-12-24T13:30:10.114Z,97563.45
2022-12-24T13:32:39.336Z,97561.80
2022-12-24T13:35:21.558Z,97559.39
2022-12-24T13:37:48.978Z,97562.48
2022-12-24T13:40:38.276Z,97561.52
2022-12-24T13:43:05.686Z,97563.69
2022-12-24T13:45:38.812Z,97564.61
2022-12-24T13:48:05.648Z,97561.50
2022-12-24T13:50:41.135Z,97560.52
2022-12-24T13:53:38.325Z,97555.15
2022-12-24T13:56:14.236Z,97560.23
2022-12-24T13:58:43.136Z,97563.27
2022-12-24T14:01:15.350Z,97567.34
2022-12-24T14:03:46.551Z,97566.75
2022-12-24T14:06:14.407Z,97568.52
2022-12-24T14:08:44.006Z,97575.46
2022-12-24T14:11:16.218Z,97574.73
2022-12-24T14:13:43.044Z,97586.31
2022-12-24T14:16:14.965Z,97589.41
2022-12-24T14:18:43.159Z,97596.27
2022-12-24T14:21:27.906Z,97597.91
2022-12-24T14:24:04.628Z,97603.06
2022-12-24T14:26:34.361Z,97606.85
2022-12-24T14:29:03.884Z,97612.02
2022-12-24T14:31:30.839Z,97614.93
2022-12-24T14:34:10.203Z,97617.14
2022-12-24T14:36:37.564Z,97625.66
2022-12-24T14:39:06.732Z,97622.31
2022-12-24T14:41:46.054Z,97621.39
2022-12-24T14:44:18.665Z,97620.92
2022-12-24T14:46:51.634Z,97623.74
2022-12-24T14:49:27.571Z,97628.02
2022-12-24T14:52:37.843Z,97627.18
2022-12-24T14:55:22.543Z,97623.27
2022-12-24T14:57:52.656Z,97627.95
2022-12-24T15:00:20.400Z,97637.53
2022-12-24T15:02:48.556Z,97639.41
2022-12-24T19:20:17.108Z,97814.52
2022-12-24T19:22:44.603Z,97823.16
2022-12-24T19:25:12.708Z,97835.84
2022-12-24T19:27:41.144Z,97832.23
2022-12-24T19:30:09.180Z,97847.98
2022-12-24T19:32:36.103Z,97854.88
2022-12-24T19:35:05.696Z,97863.40
2022-12-24T19:37:32.668Z,97866.38
2022-12-24T19:40:03.073Z,97862.48
2022-12-24T19:42:33.563Z,97871.77
2022-12-24T19:45:00.645Z,97876.50
2022-12-24T19:47:29.973Z,97877.95
2022-12-24T19:49:59.251Z,97881.95
2022-12-24T19:52:26.236Z,97883.06
2022-12-24T19:54:53.336Z,97891.36
2022-12-24T19:57:20.279Z,97891.17
2022-12-24T19:59:47.371Z,97891.35
2022-12-24T20:02:14.664Z,97895.01
2022-12-24T20:04:41.934Z,97903.30
2022-12-24T20:07:09.086Z,97899.65
2022-12-24T20:09:37.157Z,97900.64
2022-12-24T20:12:04.611Z,97904.63
2022-12-24T20:14:31.561Z,97903.44
2022-12-24T20:16:58.590Z,97910.34
2022-12-24T20:19:25.577Z,97918.56
2022-12-24T20:21:52.504Z,97922.05
2022-12-24T20:24:19.948Z,97919.57
2022-12-24T20:26:47.098Z,97924.30
2022-12-24T20:29:14.452Z,97924.50
2022-12-24T20:31:41.549Z,97921.63
2022-12-24T20:34:09.105Z,97923.52
2022-12-24T20:36:37.486Z,97922.61
2022-12-24T20:39:05.658Z,97922.85
2022-12-24T20:41:34.753Z,97925.19
2022-12-24T20:44:05.029Z,97924.80
2022-12-24T20:46:34.393Z,97924.06
2022-12-24T20:49:01.494Z,97923.50
2022-12-24T20:51:28.870Z,97927.52
2022-12-24T20:53:58.047Z,97933.63
2022-12-24T20:56:25.245Z,97933.90
2022-12-24T20:58:52.613Z,97929.23
2022-12-24T21:01:25.230Z,97931.23
2022-12-24T21:03:54.113Z,97930.69
2022-12-24T21:06:22.094Z,97935.71
2022-12-24T21:08:49.605Z,97944.08
2022-12-24T21:11:35.617Z,97946.59
2022-12-24T21:14:03.191Z,97951.17
2022-12-24T21:16:31.561Z,97954.63
2022-12-24T21:18:58.702Z,97953.83
2022-12-24T21:21:25.913Z,97954.20
2022-12-24T21:23:52.985Z,97955.20
2022-12-24T21:26:21.325Z,97959.91
2022-12-24T21:28:49.126Z,97959.44
2022-12-24T21:31:18.452Z,97963.27
2022-12-24T21:33:45.840Z,97963.42
2022-12-24T21:36:13.155Z,97961.55
2022-12-24T21:38:40.049Z,97965.95
2022-12-24T21:41:18.005Z,97971.91
2022-12-24T21:43:45.870Z,97972.80
2022-12-24T21:46:14.805Z,97976.06
2022-12-24T21:49:00.791Z,97973.76
2022-12-24T21:51:28.006Z,97979.42
2022-12-24T21:54:13.817Z,97987.98
2022-12-24T21:56:59.533Z,97988.41
2022-12-24T21:59:27.356Z,97994.23
2022-12-24T22:01:55.646Z,97997.64
2022-12-24T22:04:23.391Z,97999.42
2022-12-24T22:07:09.267Z,98003.84
2022-12-24T22:09:56.593Z,98006.52
2022-12-24T22:12:23.842Z,98005.84
2022-12-24T22:14:51.403Z,98011.15
2022-12-24T22:17:24.465Z,98023.36
2022-12-24T22:19:53.388Z,98027.21
2022-12-24T22:22:20.643Z,98030.98
2022-12-24T22:24:47.576Z,98035.14
2022-12-24T22:27:14.519Z,98038.59
2022-12-24T22:29:41.462Z,98042.86
2022-12-24T22:32:08.418Z,98048.00
2022-12-24T22:34:36.311Z,98047.11
2022-12-24T22:37:03.320Z,98052.34
2022-12-24T22:39:30.184Z,98054.27
2022-12-24T22:41:58.382Z,98054.27
2022-12-24T22:44:25.694Z,98058.67
2022-12-24T22:46:54.546Z,98060.37
2022-12-24T22:49:21.431Z,98063.11
2022-12-24T22:51:48.316Z,98069.02
2022-12-24T22:54:16.137Z,98071.73
2022-12-24T22:56:43.027Z,98078.06
2022-12-24T22:59:12.421Z,98079.12
2022-12-24T23:01:43.359Z,98086.38
2022-12-24T23:04:11.243Z,98093.10
2022-12-24T23:06:38.384Z,98095.28
2022-12-24T23:09:06.505Z,98097.72
2022-12-24T23:11:33.461Z,98099.90
2022-12-24T23:14:19.236Z,98101.71
2022-12-24T23:16:46.194Z,98103.45
2022-12-24T23:19:13.158Z,98109.52
2022-12-24T23:21:42.479Z,98117.26
2022-12-24T23:24:09.946Z,98119.20
2022-12-24T23:26:37.033Z,98125.53
2022-12-24T23:29:03.988Z,98127.10
2022-12-24T23:31:34.932Z,98129.86
2022-12-24T23:34:02.326Z,98128.27
2022-12-24T23:36:29.515Z,98133.09
2022-12-24T23:38:57.731Z,98135.59
2022-12-24T23:41:25.056Z,98139.35
2022-12-24T23:43:52.110Z,98139.92
2022-12-24T23:46:19.522Z,98140.54
2022-12-24T23:48:46.908Z,98140.79
2022-12-24T23:51:15.646Z,98143.63
2022-12-24T23:53:42.651Z,98152.32
2022-12-24T23:56:11.599Z,98158.30
2022-12-24T23:58:39.830Z,98160.81
